sensor_id;sensor_type;location;lat;lon;timestamp;P1;durP1;ratioP1;P2;durP2;ratioP2
56455;SDS011;42354;53.218;6.564;2023-01-20T00:01:35;10.32;;;2.78;;
56455;SDS011;42354;53.218;6.564;2023-01-20T00:04:02;9.80;;;2.85;;
56455;SDS011;42354;53.218;6.564;2023-01-20T00:06:27;6.85;;;3.33;;
56455;SDS011;42354;53.218;6.564;2023-01-20T00:08:54;6.95;;;3.10;;
56455;SDS011;42354;53.218;6.564;2023-01-20T00:11:20;7.82;;;2.85;;
56455;SDS011;42354;53.218;6.564;2023-01-20T00:13:46;5.72;;;2.70;;
56455;SDS011;42354;53.218;6.564;2023-01-20T00:16:12;7.72;;;2.90;;
56455;SDS011;42354;53.218;6.564;2023-01-20T00:18:38;7.28;;;3.25;;
56455;SDS011;42354;53.218;6.564;2023-01-20T00:21:09;6.07;;;3.00;;
56455;SDS011;42354;53.218;6.564;2023-01-20T00:23:36;8.43;;;3.28;;
56455;SDS011;42354;53.218;6.564;2023-01-20T00:26:03;9.27;;;3.78;;
56455;SDS011;42354;53.218;6.564;2023-01-20T00:28:30;9.77;;;3.00;;
56455;SDS011;42354;53.218;6.564;2023-01-20T00:30:55;9.25;;;3.83;;
56455;SDS011;42354;53.218;6.564;2023-01-20T00:33:20;7.05;;;3.72;;
56455;SDS011;42354;53.218;6.564;2023-01-20T00:35:46;10.07;;;4.03;;
56455;SDS011;42354;53.218;6.564;2023-01-20T00:38:11;8.45;;;3.80;;
56455;SDS011;42354;53.218;6.564;2023-01-20T00:40:36;8.95;;;3.92;;
56455;SDS011;42354;53.218;6.564;2023-01-20T00:43:02;9.07;;;3.75;;
56455;SDS011;42354;53.218;6.564;2023-01-20T00:45:27;9.48;;;4.18;;
56455;SDS011;42354;53.218;6.564;2023-01-20T00:47:52;7.78;;;3.65;;
56455;SDS011;42354;53.218;6.564;2023-01-20T00:50:18;9.85;;;4.43;;
56455;SDS011;42354;53.218;6.564;2023-01-20T00:52:43;11.13;;;5.20;;
56455;SDS011;42354;53.218;6.564;2023-01-20T00:55:08;13.63;;;5.80;;
56455;SDS011;42354;53.218;6.564;2023-01-20T00:57:34;13.02;;;5.78;;
56455;SDS011;42354;53.218;6.564;2023-01-20T00:59:59;12.65;;;6.10;;
56455;SDS011;42354;53.218;6.564;2023-01-20T01:02:24;17.48;;;7.35;;
56455;SDS011;42354;53.218;6.564;2023-01-20T01:04:50;14.35;;;6.90;;
56455;SDS011;42354;53.218;6.564;2023-01-20T01:07:16;19.35;;;8.38;;
56455;SDS011;42354;53.218;6.564;2023-01-20T01:09:42;19.60;;;8.45;;
56455;SDS011;42354;53.218;6.564;2023-01-20T01:12:07;23.08;;;9.55;;
56455;SDS011;42354;53.218;6.564;2023-01-20T01:14:32;23.88;;;9.88;;
56455;SDS011;42354;53.218;6.564;2023-01-20T01:16:58;22.60;;;8.98;;
56455;SDS011;42354;53.218;6.564;2023-01-20T01:19:23;22.40;;;8.52;;
56455;SDS011;42354;53.218;6.564;2023-01-20T01:21:49;32.15;;;11.02;;
56455;SDS011;42354;53.218;6.564;2023-01-20T01:24:14;29.35;;;10.13;;
56455;SDS011;42354;53.218;6.564;2023-01-20T01:26:40;29.38;;;11.10;;
56455;SDS011;42354;53.218;6.564;2023-01-20T01:29:05;36.97;;;12.65;;
56455;SDS011;42354;53.218;6.564;2023-01-20T01:31:30;51.92;;;12.23;;
56455;SDS011;42354;53.218;6.564;2023-01-20T01:33:56;51.28;;;13.45;;
56455;SDS011;42354;53.218;6.564;2023-01-20T01:36:21;52.80;;;15.27;;
56455;SDS011;42354;53.218;6.564;2023-01-20T01:38:46;95.43;;;19.77;;
56455;SDS011;42354;53.218;6.564;2023-01-20T01:41:12;75.10;;;16.67;;
56455;SDS011;42354;53.218;6.564;2023-01-20T01:43:39;47.28;;;15.07;;
56455;SDS011;42354;53.218;6.564;2023-01-20T01:46:25;62.55;;;17.40;;
56455;SDS011;42354;53.218;6.564;2023-01-20T01:48:50;55.00;;;14.77;;
56455;SDS011;42354;53.218;6.564;2023-01-20T01:51:18;43.53;;;15.40;;
56455;SDS011;42354;53.218;6.564;2023-01-20T01:53:48;76.05;;;15.80;;
56455;SDS011;42354;53.218;6.564;2023-01-20T01:56:18;46.05;;;15.15;;
56455;SDS011;42354;53.218;6.564;2023-01-20T01:58:45;39.70;;;15.00;;
56455;SDS011;42354;53.218;6.564;2023-01-20T02:01:14;35.88;;;14.32;;
56455;SDS011;42354;53.218;6.564;2023-01-20T02:03:45;30.50;;;13.65;;
56455;SDS011;42354;53.218;6.564;2023-01-20T02:06:17;36.30;;;14.15;;
56455;SDS011;42354;53.218;6.564;2023-01-20T02:08:45;29.05;;;12.13;;
56455;SDS011;42354;53.218;6.564;2023-01-20T02:11:11;27.77;;;11.45;;
56455;SDS011;42354;53.218;6.564;2023-01-20T02:13:36;29.13;;;12.15;;
56455;SDS011;42354;53.218;6.564;2023-01-20T02:18:48;25.45;;;11.05;;
56455;SDS011;42354;53.218;6.564;2023-01-20T02:33:39;27.02;;;11.32;;
56455;SDS011;42354;53.218;6.564;2023-01-20T02:36:12;30.50;;;13.13;;
56455;SDS011;42354;53.218;6.564;2023-01-20T02:43:47;44.83;;;14.68;;
56455;SDS011;42354;53.218;6.564;2023-01-20T02:46:24;37.42;;;14.07;;
56455;SDS011;42354;53.218;6.564;2023-01-20T02:52:20;39.55;;;14.25;;
56455;SDS011;42354;53.218;6.564;2023-01-20T02:54:29;35.55;;;14.32;;
56455;SDS011;42354;53.218;6.564;2023-01-20T02:56:58;33.28;;;14.60;;
56455;SDS011;42354;53.218;6.564;2023-01-20T02:59:30;37.08;;;14.73;;
56455;SDS011;42354;53.218;6.564;2023-01-20T03:02:02;38.03;;;14.95;;
56455;SDS011;42354;53.218;6.564;2023-01-20T03:07:00;34.78;;;14.27;;
56455;SDS011;42354;53.218;6.564;2023-01-20T03:09:47;34.05;;;15.95;;
56455;SDS011;42354;53.218;6.564;2023-01-20T03:12:20;34.35;;;14.90;;
56455;SDS011;42354;53.218;6.564;2023-01-20T03:14:50;32.17;;;15.63;;
56455;SDS011;42354;53.218;6.564;2023-01-20T03:17:16;32.50;;;14.98;;
56455;SDS011;42354;53.218;6.564;2023-01-20T03:19:43;32.95;;;14.88;;
56455;SDS011;42354;53.218;6.564;2023-01-20T03:22:08;33.28;;;15.45;;
56455;SDS011;42354;53.218;6.564;2023-01-20T03:24:33;30.88;;;15.45;;
56455;SDS011;42354;53.218;6.564;2023-01-20T03:27:01;40.45;;;16.55;;
56455;SDS011;42354;53.218;6.564;2023-01-20T03:29:28;39.05;;;16.05;;
56455;SDS011;42354;53.218;6.564;2023-01-20T03:31:55;38.85;;;16.20;;
56455;SDS011;42354;53.218;6.564;2023-01-20T03:34:24;36.55;;;15.85;;
56455;SDS011;42354;53.218;6.564;2023-01-20T03:36:52;41.38;;;16.98;;
56455;SDS011;42354;53.218;6.564;2023-01-20T03:39:19;39.63;;;17.42;;
56455;SDS011;42354;53.218;6.564;2023-01-20T03:50:16;53.30;;;19.35;;
56455;SDS011;42354;53.218;6.564;2023-01-20T03:52:53;45.38;;;19.02;;
56455;SDS011;42354;53.218;6.564;2023-01-20T03:55:25;57.10;;;20.45;;
56455;SDS011;42354;53.218;6.564;2023-01-20T03:58:08;59.33;;;20.52;;
56455;SDS011;42354;53.218;6.564;2023-01-20T04:00:37;54.35;;;21.58;;
56455;SDS011;42354;53.218;6.564;2023-01-20T04:03:08;53.72;;;20.63;;
56455;SDS011;42354;53.218;6.564;2023-01-20T04:05:39;59.22;;;21.60;;
56455;SDS011;42354;53.218;6.564;2023-01-20T04:08:07;57.70;;;21.60;;
56455;SDS011;42354;53.218;6.564;2023-01-20T04:10:35;61.58;;;23.10;;
56455;SDS011;42354;53.218;6.564;2023-01-20T04:13:04;58.90;;;21.92;;
56455;SDS011;42354;53.218;6.564;2023-01-20T04:15:34;64.25;;;21.23;;
56455;SDS011;42354;53.218;6.564;2023-01-20T04:20:45;52.92;;;20.33;;
56455;SDS011;42354;53.218;6.564;2023-01-20T04:23:17;59.05;;;23.58;;
56455;SDS011;42354;53.218;6.564;2023-01-20T04:25:59;53.65;;;21.27;;
56455;SDS011;42354;53.218;6.564;2023-01-20T04:28:25;59.40;;;22.17;;
56455;SDS011;42354;53.218;6.564;2023-01-20T04:30:50;62.58;;;20.75;;
56455;SDS011;42354;53.218;6.564;2023-01-20T04:33:16;72.00;;;22.77;;
56455;SDS011;42354;53.218;6.564;2023-01-20T04:35:41;68.72;;;22.00;;
56455;SDS011;42354;53.218;6.564;2023-01-20T04:38:06;65.10;;;22.38;;
56455;SDS011;42354;53.218;6.564;2023-01-20T04:40:32;62.95;;;20.25;;
56455;SDS011;42354;53.218;6.564;2023-01-20T04:42:57;61.78;;;20.33;;
56455;SDS011;42354;53.218;6.564;2023-01-20T04:45:23;53.28;;;19.67;;
56455;SDS011;42354;53.218;6.564;2023-01-20T04:47:48;58.67;;;20.92;;
56455;SDS011;42354;53.218;6.564;2023-01-20T04:50:13;58.83;;;20.60;;
56455;SDS011;42354;53.218;6.564;2023-01-20T04:52:40;57.67;;;19.50;;
56455;SDS011;42354;53.218;6.564;2023-01-20T04:55:06;61.58;;;20.75;;
56455;SDS011;42354;53.218;6.564;2023-01-20T04:57:32;52.40;;;18.05;;
56455;SDS011;42354;53.218;6.564;2023-01-20T04:59:57;52.10;;;17.83;;
56455;SDS011;42354;53.218;6.564;2023-01-20T05:02:22;50.25;;;17.80;;
56455;SDS011;42354;53.218;6.564;2023-01-20T05:04:48;51.80;;;18.60;;
56455;SDS011;42354;53.218;6.564;2023-01-20T05:07:13;51.13;;;17.40;;
56455;SDS011;42354;53.218;6.564;2023-01-20T05:09:38;51.83;;;18.27;;
56455;SDS011;42354;53.218;6.564;2023-01-20T05:12:04;54.28;;;18.40;;
56455;SDS011;42354;53.218;6.564;2023-01-20T05:14:29;51.97;;;17.10;;
56455;SDS011;42354;53.218;6.564;2023-01-20T05:16:55;47.28;;;17.35;;
56455;SDS011;42354;53.218;6.564;2023-01-20T05:19:20;47.55;;;17.42;;
56455;SDS011;42354;53.218;6.564;2023-01-20T05:21:45;53.72;;;18.60;;
56455;SDS011;42354;53.218;6.564;2023-01-20T05:24:11;48.78;;;18.08;;
56455;SDS011;42354;53.218;6.564;2023-01-20T05:26:36;50.00;;;18.02;;
56455;SDS011;42354;53.218;6.564;2023-01-20T05:29:01;46.72;;;16.95;;
56455;SDS011;42354;53.218;6.564;2023-01-20T05:31:27;54.42;;;17.05;;
56455;SDS011;42354;53.218;6.564;2023-01-20T05:33:53;54.47;;;18.10;;
56455;SDS011;42354;53.218;6.564;2023-01-20T05:36:18;45.80;;;17.60;;
56455;SDS011;42354;53.218;6.564;2023-01-20T05:38:44;52.53;;;18.38;;
56455;SDS011;42354;53.218;6.564;2023-01-20T05:41:09;53.70;;;18.38;;
56455;SDS011;42354;53.218;6.564;2023-01-20T05:43:35;48.45;;;16.95;;
56455;SDS011;42354;53.218;6.564;2023-01-20T05:46:01;55.45;;;18.00;;
56455;SDS011;42354;53.218;6.564;2023-01-20T05:48:27;49.28;;;16.67;;
56455;SDS011;42354;53.218;6.564;2023-01-20T05:50:52;48.63;;;17.67;;
56455;SDS011;42354;53.218;6.564;2023-01-20T05:53:18;52.13;;;17.00;;
56455;SDS011;42354;53.218;6.564;2023-01-20T05:55:43;54.25;;;17.63;;
56455;SDS011;42354;53.218;6.564;2023-01-20T05:58:09;51.17;;;17.55;;
56455;SDS011;42354;53.218;6.564;2023-01-20T06:00:35;46.88;;;18.25;;
56455;SDS011;42354;53.218;6.564;2023-01-20T06:03:00;48.03;;;17.85;;
56455;SDS011;42354;53.218;6.564;2023-01-20T06:05:26;50.50;;;18.15;;
56455;SDS011;42354;53.218;6.564;2023-01-20T06:07:53;49.83;;;17.70;;
56455;SDS011;42354;53.218;6.564;2023-01-20T06:10:19;47.15;;;16.55;;
56455;SDS011;42354;53.218;6.564;2023-01-20T06:12:49;51.63;;;19.13;;
56455;SDS011;42354;53.218;6.564;2023-01-20T06:15:17;51.00;;;19.88;;
56455;SDS011;42354;53.218;6.564;2023-01-20T06:17:43;53.38;;;19.45;;
56455;SDS011;42354;53.218;6.564;2023-01-20T06:20:08;50.22;;;18.50;;
56455;SDS011;42354;53.218;6.564;2023-01-20T06:22:34;58.20;;;19.75;;
56455;SDS011;42354;53.218;6.564;2023-01-20T06:25:00;48.78;;;18.35;;
56455;SDS011;42354;53.218;6.564;2023-01-20T06:27:25;54.80;;;19.15;;
56455;SDS011;42354;53.218;6.564;2023-01-20T06:29:50;59.50;;;20.58;;
56455;SDS011;42354;53.218;6.564;2023-01-20T06:32:16;62.92;;;20.38;;
56455;SDS011;42354;53.218;6.564;2023-01-20T06:34:41;59.63;;;20.17;;
56455;SDS011;42354;53.218;6.564;2023-01-20T06:37:07;55.65;;;19.83;;
56455;SDS011;42354;53.218;6.564;2023-01-20T06:39:32;55.30;;;20.10;;
56455;SDS011;42354;53.218;6.564;2023-01-20T06:41:58;54.65;;;20.73;;
56455;SDS011;42354;53.218;6.564;2023-01-20T06:44:24;54.00;;;20.60;;
56455;SDS011;42354;53.218;6.564;2023-01-20T06:46:50;57.40;;;20.05;;
56455;SDS011;42354;53.218;6.564;2023-01-20T06:49:16;51.42;;;19.48;;
56455;SDS011;42354;53.218;6.564;2023-01-20T06:51:42;55.83;;;20.70;;
56455;SDS011;42354;53.218;6.564;2023-01-20T06:54:07;56.83;;;20.08;;
56455;SDS011;42354;53.218;6.564;2023-01-20T06:56:33;52.25;;;20.80;;
56455;SDS011;42354;53.218;6.564;2023-01-20T06:58:58;52.15;;;19.35;;
56455;SDS011;42354;53.218;6.564;2023-01-20T07:01:25;53.97;;;19.70;;
56455;SDS011;42354;53.218;6.564;2023-01-20T07:03:56;48.65;;;19.20;;
56455;SDS011;42354;53.218;6.564;2023-01-20T07:06:32;54.80;;;21.20;;
56455;SDS011;42354;53.218;6.564;2023-01-20T07:09:05;57.65;;;21.35;;
56455;SDS011;42354;53.218;6.564;2023-01-20T07:11:33;53.67;;;19.23;;
56455;SDS011;42354;53.218;6.564;2023-01-20T07:14:04;57.85;;;20.75;;
56455;SDS011;42354;53.218;6.564;2023-01-20T07:16:30;60.72;;;20.65;;
56455;SDS011;42354;53.218;6.564;2023-01-20T07:18:56;56.05;;;20.35;;
56455;SDS011;42354;53.218;6.564;2023-01-20T07:21:22;54.20;;;20.30;;
56455;SDS011;42354;53.218;6.564;2023-01-20T07:23:48;54.28;;;20.48;;
56455;SDS011;42354;53.218;6.564;2023-01-20T07:26:17;62.70;;;22.63;;
56455;SDS011;42354;53.218;6.564;2023-01-20T07:28:44;54.10;;;21.38;;
56455;SDS011;42354;53.218;6.564;2023-01-20T07:31:11;57.95;;;21.40;;
56455;SDS011;42354;53.218;6.564;2023-01-20T07:33:38;52.72;;;20.48;;
56455;SDS011;42354;53.218;6.564;2023-01-20T07:36:04;55.35;;;21.38;;
56455;SDS011;42354;53.218;6.564;2023-01-20T07:38:31;58.33;;;22.88;;
56455;SDS011;42354;53.218;6.564;2023-01-20T07:40:57;56.90;;;21.30;;
56455;SDS011;42354;53.218;6.564;2023-01-20T07:43:23;59.22;;;21.55;;
56455;SDS011;42354;53.218;6.564;2023-01-20T07:45:49;59.20;;;21.50;;
56455;SDS011;42354;53.218;6.564;2023-01-20T07:48:14;60.55;;;22.55;;
56455;SDS011;42354;53.218;6.564;2023-01-20T07:50:39;61.40;;;22.77;;
56455;SDS011;42354;53.218;6.564;2023-01-20T07:53:05;61.88;;;22.92;;
56455;SDS011;42354;53.218;6.564;2023-01-20T07:55:31;65.85;;;23.42;;
56455;SDS011;42354;53.218;6.564;2023-01-20T07:57:57;62.45;;;22.88;;
56455;SDS011;42354;53.218;6.564;2023-01-20T08:00:23;63.35;;;23.30;;
56455;SDS011;42354;53.218;6.564;2023-01-20T08:02:48;60.63;;;22.35;;
56455;SDS011;42354;53.218;6.564;2023-01-20T08:05:14;56.40;;;21.90;;
56455;SDS011;42354;53.218;6.564;2023-01-20T08:07:39;61.90;;;22.50;;
56455;SDS011;42354;53.218;6.564;2023-01-20T08:10:05;60.78;;;23.35;;
56455;SDS011;42354;53.218;6.564;2023-01-20T08:12:30;61.30;;;22.77;;
56455;SDS011;42354;53.218;6.564;2023-01-20T08:14:56;64.20;;;22.73;;
56455;SDS011;42354;53.218;6.564;2023-01-20T08:17:21;66.63;;;24.98;;
56455;SDS011;42354;53.218;6.564;2023-01-20T08:19:47;61.40;;;23.77;;
56455;SDS011;42354;53.218;6.564;2023-01-20T08:22:12;66.20;;;25.15;;
56455;SDS011;42354;53.218;6.564;2023-01-20T08:24:37;63.58;;;24.23;;
56455;SDS011;42354;53.218;6.564;2023-01-20T08:27:03;66.05;;;24.63;;
56455;SDS011;42354;53.218;6.564;2023-01-20T08:29:28;68.35;;;25.23;;
56455;SDS011;42354;53.218;6.564;2023-01-20T08:31:57;64.35;;;23.70;;
56455;SDS011;42354;53.218;6.564;2023-01-20T08:34:23;60.53;;;23.90;;
56455;SDS011;42354;53.218;6.564;2023-01-20T08:36:49;69.47;;;24.67;;
56455;SDS011;42354;53.218;6.564;2023-01-20T08:39:17;65.72;;;24.38;;
56455;SDS011;42354;53.218;6.564;2023-01-20T08:41:43;60.95;;;24.35;;
56455;SDS011;42354;53.218;6.564;2023-01-20T08:44:09;53.00;;;23.35;;
56455;SDS011;42354;53.218;6.564;2023-01-20T08:46:35;60.75;;;24.10;;
56455;SDS011;42354;53.218;6.564;2023-01-20T08:49:04;64.00;;;25.13;;
56455;SDS011;42354;53.218;6.564;2023-01-20T08:51:34;61.03;;;25.50;;
56455;SDS011;42354;53.218;6.564;2023-01-20T08:53:59;61.88;;;24.58;;
56455;SDS011;42354;53.218;6.564;2023-01-20T08:56:25;55.83;;;24.88;;
56455;SDS011;42354;53.218;6.564;2023-01-20T08:58:51;62.72;;;25.52;;
56455;SDS011;42354;53.218;6.564;2023-01-20T09:01:22;58.75;;;24.48;;
56455;SDS011;42354;53.218;6.564;2023-01-20T09:03:49;62.35;;;25.25;;
56455;SDS011;42354;53.218;6.564;2023-01-20T09:06:15;66.20;;;24.85;;
56455;SDS011;42354;53.218;6.564;2023-01-20T09:08:40;65.50;;;26.60;;
56455;SDS011;42354;53.218;6.564;2023-01-20T09:11:08;63.88;;;25.85;;
56455;SDS011;42354;53.218;6.564;2023-01-20T09:13:36;65.72;;;26.42;;
56455;SDS011;42354;53.218;6.564;2023-01-20T09:16:01;70.78;;;26.42;;
56455;SDS011;42354;53.218;6.564;2023-01-20T09:18:28;68.05;;;27.05;;
56455;SDS011;42354;53.218;6.564;2023-01-20T09:20:55;58.92;;;24.77;;
56455;SDS011;42354;53.218;6.564;2023-01-20T09:23:22;65.38;;;25.65;;
56455;SDS011;42354;53.218;6.564;2023-01-20T09:25:48;61.80;;;25.48;;
56455;SDS011;42354;53.218;6.564;2023-01-20T09:28:13;62.70;;;25.40;;
56455;SDS011;42354;53.218;6.564;2023-01-20T09:30:38;68.82;;;25.88;;
56455;SDS011;42354;53.218;6.564;2023-01-20T09:33:04;69.45;;;26.02;;
56455;SDS011;42354;53.218;6.564;2023-01-20T09:35:29;64.50;;;25.27;;
56455;SDS011;42354;53.218;6.564;2023-01-20T09:37:55;68.03;;;25.63;;
56455;SDS011;42354;53.218;6.564;2023-01-20T09:49:18;70.55;;;26.35;;
56455;SDS011;42354;53.218;6.564;2023-01-20T09:52:17;66.22;;;26.67;;
56455;SDS011;42354;53.218;6.564;2023-01-20T09:55:20;70.22;;;26.48;;
56455;SDS011;42354;53.218;6.564;2023-01-20T09:57:52;64.00;;;25.48;;
56455;SDS011;42354;53.218;6.564;2023-01-20T10:00:26;70.05;;;27.20;;
56455;SDS011;42354;53.218;6.564;2023-01-20T10:03:08;65.93;;;25.52;;
56455;SDS011;42354;53.218;6.564;2023-01-20T10:05:41;65.10;;;24.75;;
56455;SDS011;42354;53.218;6.564;2023-01-20T10:10:51;64.00;;;25.77;;
56455;SDS011;42354;53.218;6.564;2023-01-20T10:13:30;65.85;;;25.33;;
56455;SDS011;42354;53.218;6.564;2023-01-20T10:15:58;69.95;;;26.67;;
56455;SDS011;42354;53.218;6.564;2023-01-20T10:21:11;65.97;;;25.38;;
56455;SDS011;42354;53.218;6.564;2023-01-20T10:23:45;65.22;;;26.10;;
56455;SDS011;42354;53.218;6.564;2023-01-20T10:26:13;66.53;;;24.98;;
56455;SDS011;42354;53.218;6.564;2023-01-20T10:29:02;65.55;;;24.58;;
56455;SDS011;42354;53.218;6.564;2023-01-20T10:31:32;66.32;;;25.70;;
56455;SDS011;42354;53.218;6.564;2023-01-20T10:34:12;69.47;;;25.73;;
56455;SDS011;42354;53.218;6.564;2023-01-20T10:36:43;74.28;;;27.52;;
56455;SDS011;42354;53.218;6.564;2023-01-20T10:39:34;67.50;;;24.75;;
56455;SDS011;42354;53.218;6.564;2023-01-20T10:42:11;73.78;;;27.08;;
56455;SDS011;42354;53.218;6.564;2023-01-20T10:44:39;66.65;;;24.73;;
56455;SDS011;42354;53.218;6.564;2023-01-20T10:47:48;69.97;;;25.65;;
56455;SDS011;42354;53.218;6.564;2023-01-20T10:55:48;64.57;;;25.13;;
56455;SDS011;42354;53.218;6.564;2023-01-20T10:58:24;69.78;;;25.40;;
56455;SDS011;42354;53.218;6.564;2023-01-20T11:00:50;72.85;;;27.05;;
56455;SDS011;42354;53.218;6.564;2023-01-20T11:03:16;70.97;;;26.08;;
56455;SDS011;42354;53.218;6.564;2023-01-20T11:05:44;61.58;;;25.85;;
56455;SDS011;42354;53.218;6.564;2023-01-20T11:08:19;72.32;;;26.10;;
56455;SDS011;42354;53.218;6.564;2023-01-20T11:10:47;71.85;;;25.67;;
56455;SDS011;42354;53.218;6.564;2023-01-20T11:13:17;71.38;;;27.55;;
56455;SDS011;42354;53.218;6.564;2023-01-20T11:15:44;67.05;;;25.70;;
56455;SDS011;42354;53.218;6.564;2023-01-20T11:20:47;69.28;;;26.75;;
56455;SDS011;42354;53.218;6.564;2023-01-20T11:23:30;72.82;;;27.25;;
56455;SDS011;42354;53.218;6.564;2023-01-20T11:26:06;70.03;;;25.85;;
56455;SDS011;42354;53.218;6.564;2023-01-20T11:28:53;64.55;;;24.50;;
56455;SDS011;42354;53.218;6.564;2023-01-20T11:31:45;70.93;;;25.92;;
56455;SDS011;42354;53.218;6.564;2023-01-20T11:36:40;72.45;;;26.48;;
56455;SDS011;42354;53.218;6.564;2023-01-20T11:39:11;64.28;;;24.10;;
56455;SDS011;42354;53.218;6.564;2023-01-20T11:41:50;63.47;;;24.42;;
56455;SDS011;42354;53.218;6.564;2023-01-20T11:44:45;63.45;;;22.70;;
56455;SDS011;42354;53.218;6.564;2023-01-20T11:47:23;59.80;;;23.48;;
56455;SDS011;42354;53.218;6.564;2023-01-20T11:52:27;61.00;;;22.92;;
56455;SDS011;42354;53.218;6.564;2023-01-20T11:55:05;68.43;;;23.52;;
56455;SDS011;42354;53.218;6.564;2023-01-20T11:57:38;56.55;;;22.27;;
56455;SDS011;42354;53.218;6.564;2023-01-20T12:00:30;61.42;;;23.45;;
56455;SDS011;42354;53.218;6.564;2023-01-20T12:05:56;64.53;;;24.42;;
56455;SDS011;42354;53.218;6.564;2023-01-20T12:11:12;60.53;;;23.20;;
56455;SDS011;42354;53.218;6.564;2023-01-20T12:13:47;69.82;;;25.25;;
56455;SDS011;42354;53.218;6.564;2023-01-20T12:16:43;63.08;;;23.52;;
56455;SDS011;42354;53.218;6.564;2023-01-20T12:19:15;53.97;;;22.70;;
56455;SDS011;42354;53.218;6.564;2023-01-20T12:21:44;61.58;;;23.35;;
56455;SDS011;42354;53.218;6.564;2023-01-20T12:24:18;68.78;;;23.45;;
56455;SDS011;42354;53.218;6.564;2023-01-20T12:26:44;64.05;;;23.48;;
56455;SDS011;42354;53.218;6.564;2023-01-20T12:32:00;62.83;;;25.67;;
56455;SDS011;42354;53.218;6.564;2023-01-20T12:34:26;67.15;;;24.42;;
56455;SDS011;42354;53.218;6.564;2023-01-20T12:37:13;63.90;;;25.52;;
56455;SDS011;42354;53.218;6.564;2023-01-20T12:44:56;65.72;;;26.05;;
56455;SDS011;42354;53.218;6.564;2023-01-20T12:58:10;68.65;;;23.63;;
56455;SDS011;42354;53.218;6.564;2023-01-20T13:01:42;70.90;;;25.33;;
56455;SDS011;42354;53.218;6.564;2023-01-20T13:07:22;60.88;;;24.02;;
56455;SDS011;42354;53.218;6.564;2023-01-20T13:12:56;71.30;;;25.35;;
56455;SDS011;42354;53.218;6.564;2023-01-20T13:15:36;67.28;;;24.30;;
56455;SDS011;42354;53.218;6.564;2023-01-20T13:20:43;65.18;;;23.17;;
56455;SDS011;42354;53.218;6.564;2023-01-20T13:23:11;68.72;;;25.15;;
56455;SDS011;42354;53.218;6.564;2023-01-20T13:25:39;62.65;;;24.75;;
56455;SDS011;42354;53.218;6.564;2023-01-20T13:28:10;64.15;;;23.83;;
56455;SDS011;42354;53.218;6.564;2023-01-20T13:30:56;62.05;;;24.42;;
56455;SDS011;42354;53.218;6.564;2023-01-20T13:35:58;63.28;;;24.52;;
56455;SDS011;42354;53.218;6.564;2023-01-20T13:38:38;68.00;;;25.25;;
56455;SDS011;42354;53.218;6.564;2023-01-20T13:41:04;73.05;;;25.85;;
56455;SDS011;42354;53.218;6.564;2023-01-20T13:48:28;60.33;;;25.33;;
56455;SDS011;42354;53.218;6.564;2023-01-20T13:50:54;58.40;;;24.20;;
56455;SDS011;42354;53.218;6.564;2023-01-20T13:53:40;59.42;;;23.77;;
56455;SDS011;42354;53.218;6.564;2023-01-20T13:58:51;65.70;;;25.55;;
56455;SDS011;42354;53.218;6.564;2023-01-20T14:01:17;66.63;;;23.95;;
56455;SDS011;42354;53.218;6.564;2023-01-20T14:03:42;58.17;;;23.13;;
56455;SDS011;42354;53.218;6.564;2023-01-20T14:08:37;68.43;;;24.35;;
56455;SDS011;42354;53.218;6.564;2023-01-20T14:13:56;56.93;;;22.37;;
56455;SDS011;42354;53.218;6.564;2023-01-20T14:16:28;57.63;;;21.88;;
56455;SDS011;42354;53.218;6.564;2023-01-20T14:19:01;55.50;;;22.65;;
56455;SDS011;42354;53.218;6.564;2023-01-20T14:21:40;63.58;;;23.33;;
56455;SDS011;42354;53.218;6.564;2023-01-20T14:24:23;53.25;;;21.92;;
56455;SDS011;42354;53.218;6.564;2023-01-20T14:29:31;51.00;;;21.35;;
56455;SDS011;42354;53.218;6.564;2023-01-20T14:31:56;62.13;;;23.80;;
56455;SDS011;42354;53.218;6.564;2023-01-20T14:36:56;58.17;;;21.40;;
56455;SDS011;42354;53.218;6.564;2023-01-20T14:39:25;55.72;;;21.25;;
56455;SDS011;42354;53.218;6.564;2023-01-20T14:42:01;54.75;;;22.52;;
56455;SDS011;42354;53.218;6.564;2023-01-20T14:44:27;50.13;;;21.55;;
56455;SDS011;42354;53.218;6.564;2023-01-20T14:46:55;54.70;;;22.48;;
56455;SDS011;42354;53.218;6.564;2023-01-20T14:49:25;54.55;;;21.52;;
56455;SDS011;42354;53.218;6.564;2023-01-20T14:51:55;56.50;;;22.17;;
56455;SDS011;42354;53.218;6.564;2023-01-20T14:56:56;66.35;;;23.23;;
56455;SDS011;42354;53.218;6.564;2023-01-20T14:59:23;58.03;;;23.10;;
56455;SDS011;42354;53.218;6.564;2023-01-20T15:01:53;53.33;;;22.27;;
56455;SDS011;42354;53.218;6.564;2023-01-20T15:04:20;61.10;;;24.63;;
56455;SDS011;42354;53.218;6.564;2023-01-20T15:06:55;61.47;;;22.35;;
56455;SDS011;42354;53.218;6.564;2023-01-20T15:09:26;59.75;;;22.58;;
56455;SDS011;42354;53.218;6.564;2023-01-20T15:17:30;56.05;;;22.00;;
56455;SDS011;42354;53.218;6.564;2023-01-20T15:19:59;56.17;;;22.15;;
56455;SDS011;42354;53.218;6.564;2023-01-20T15:22:25;58.17;;;23.35;;
56455;SDS011;42354;53.218;6.564;2023-01-20T15:24:51;56.95;;;22.48;;
56455;SDS011;42354;53.218;6.564;2023-01-20T15:27:22;55.60;;;20.73;;
56455;SDS011;42354;53.218;6.564;2023-01-20T15:30:10;51.78;;;21.75;;
56455;SDS011;42354;53.218;6.564;2023-01-20T15:32:40;54.13;;;23.30;;
56455;SDS011;42354;53.218;6.564;2023-01-20T15:35:06;58.78;;;24.55;;
56455;SDS011;42354;53.218;6.564;2023-01-20T15:37:37;55.60;;;22.33;;
56455;SDS011;42354;53.218;6.564;2023-01-20T15:40:02;65.43;;;24.23;;
56455;SDS011;42354;53.218;6.564;2023-01-20T15:42:28;59.65;;;24.33;;
56455;SDS011;42354;53.218;6.564;2023-01-20T15:44:54;50.63;;;21.70;;
56455;SDS011;42354;53.218;6.564;2023-01-20T15:47:20;54.53;;;20.85;;
56455;SDS011;42354;53.218;6.564;2023-01-20T15:49:51;54.30;;;22.10;;
56455;SDS011;42354;53.218;6.564;2023-01-20T15:52:16;55.92;;;21.90;;
56455;SDS011;42354;53.218;6.564;2023-01-20T15:54:41;59.35;;;23.13;;
56455;SDS011;42354;53.218;6.564;2023-01-20T15:57:13;55.78;;;23.83;;
56455;SDS011;42354;53.218;6.564;2023-01-20T16:02:20;62.25;;;24.27;;
56455;SDS011;42354;53.218;6.564;2023-01-20T16:04:46;63.25;;;24.27;;
56455;SDS011;42354;53.218;6.564;2023-01-20T16:07:13;54.90;;;22.58;;
56455;SDS011;42354;53.218;6.564;2023-01-20T16:09:40;60.22;;;24.25;;
56455;SDS011;42354;53.218;6.564;2023-01-20T16:12:10;63.53;;;25.17;;
56455;SDS011;42354;53.218;6.564;2023-01-20T16:14:42;58.22;;;24.25;;
56455;SDS011;42354;53.218;6.564;2023-01-20T16:17:12;61.15;;;25.65;;
56455;SDS011;42354;53.218;6.564;2023-01-20T16:19:43;60.75;;;23.70;;
56455;SDS011;42354;53.218;6.564;2023-01-20T16:22:09;58.67;;;22.00;;
56455;SDS011;42354;53.218;6.564;2023-01-20T16:24:35;60.95;;;23.88;;
56455;SDS011;42354;53.218;6.564;2023-01-20T16:27:02;59.88;;;23.80;;
56455;SDS011;42354;53.218;6.564;2023-01-20T16:29:29;61.03;;;24.88;;
56455;SDS011;42354;53.218;6.564;2023-01-20T16:31:55;53.90;;;22.00;;
56455;SDS011;42354;53.218;6.564;2023-01-20T16:34:20;54.33;;;21.65;;
56455;SDS011;42354;53.218;6.564;2023-01-20T16:36:46;53.35;;;22.50;;
56455;SDS011;42354;53.218;6.564;2023-01-20T16:39:11;57.03;;;24.17;;
56455;SDS011;42354;53.218;6.564;2023-01-20T16:41:37;54.28;;;24.58;;
56455;SDS011;42354;53.218;6.564;2023-01-20T16:44:02;58.20;;;24.65;;